Time;durP1;ratioP1;P1;durP2;ratioP2;P2;SDS_P1;SDS_P2;PMS_P1;PMS_P2;Temp;Humidity;BMP_temperature;BMP_pressure;BME280_temperature;BME280_humidity;BME280_pressure;Samples;Min_cycle;Max_cycle;Signal;HPM_P1;HPM_P2
2024/01/14 00:00:37;;;;;;;;;;;-1.00;99.90;;;;;;5108285;27;19927;-78
2024/01/14 00:03:04;;;;;;;;;;;-1.00;99.90;;;;;;5092842;28;20034;-78
2024/01/14 00:05:30;;;;;;;;;;;-1.00;99.90;;;;;;5112683;28;19935;-77
2024/01/14 00:07:57;;;;;;;;;;;-1.00;99.90;;;;;;5115158;28;19928;-78
2024/01/14 00:10:25;;;;;;;;;;;-1.00;99.90;;;;;;5114299;28;19928;-78
2024/01/14 00:12:52;;;;;;;;;;;-1.00;99.90;;;;;;5114844;27;19923;-78
2024/01/14 00:15:19;;;;;;;;;;;-1.00;99.90;;;;;;5110665;28;19971;-77
2024/01/14 00:17:46;;;;;;;;;;;-1.00;99.90;;;;;;5110465;28;21147;-78
2024/01/14 00:20:13;;;;;;;;;;;-1.00;99.90;;;;;;5101192;27;19961;-78
2024/01/14 00:22:40;;;;;;;;;;;-1.10;99.90;;;;;;5117576;27;19939;-79
2024/01/14 00:25:07;;;;;;;;;;;-1.10;99.90;;;;;;5117131;28;19928;-77
2024/01/14 00:27:35;;;;;;;;;;;-1.00;99.90;;;;;;5113319;28;19930;-76
2024/01/14 00:30:03;;;;;;;;;;;-1.10;99.90;;;;;;5116085;27;19943;-78
2024/01/14 00:32:30;;;;;;;;;;;-1.10;99.90;;;;;;5111731;28;19949;-78
2024/01/14 00:34:56;;;;;;;;;;;-1.10;99.90;;;;;;5117371;28;19928;-78
2024/01/14 00:37:24;;;;;;;;;;;-1.10;99.90;;;;;;5115007;28;19993;-77
2024/01/14 00:39:51;;;;;;;;;;;-1.10;99.90;;;;;;5081567;28;19983;-78
2024/01/14 00:42:17;;;;;;;;;;;-1.10;99.90;;;;;;5106515;28;19928;-77
2024/01/14 00:44:46;;;;;;;;;;;-1.10;99.90;;;;;;5109700;27;19988;-78
2024/01/14 00:47:13;;;;;;;;;;;-1.10;99.90;;;;;;5106148;27;19994;-78
2024/01/14 00:49:40;;;;;;;;;;;-1.10;99.90;;;;;;5105163;28;19939;-78
2024/01/14 00:52:06;;;;;;;;;;;-1.10;99.90;;;;;;5104756;27;19924;-77
2024/01/14 00:54:33;;;;;;;;;;;-1.10;99.90;;;;;;5109740;27;19932;-77
2024/01/14 00:57:00;;;;;;;;;;;-1.10;99.90;;;;;;5091761;28;19935;-78
2024/01/14 00:59:27;;;;;;;;;;;-1.10;99.90;;;;;;5113759;27;20153;-77
2024/01/14 01:01:55;;;;;;;;;;;-1.10;99.90;;;;;;5109188;28;19939;-77
2024/01/14 01:04:23;;;;;;;;;;;-1.10;99.90;;;;;;5110002;28;19928;-77
2024/01/14 01:06:49;;;;;;;;;;;-1.10;99.90;;;;;;5109653;27;19931;-77
2024/01/14 01:09:16;;;;;;;;;;;-1.10;99.90;;;;;;5093122;28;19927;-77
2024/01/14 01:11:43;;;;;;;;;;;-1.10;99.90;;;;;;5108175;28;19974;-77
2024/01/14 01:14:10;;;;;;;;;;;-1.10;99.90;;;;;;5110871;28;19939;-78
2024/01/14 01:16:36;;;;;;;;;;;-1.10;99.90;;;;;;5108662;28;20499;-78
2024/01/14 01:19:04;;;;;;;;;;;-1.10;99.90;;;;;;5114567;28;19947;-78
2024/01/14 01:21:31;;;;;;;;;;;-1.20;99.90;;;;;;5112805;27;19934;-77
2024/01/14 01:23:58;;;;;;;;;;;-1.10;99.90;;;;;;5116726;28;19977;-77
2024/01/14 01:26:25;;;;;;;;;;;-1.10;99.90;;;;;;5100498;28;19928;-78
2024/01/14 01:28:51;;;;;;;;;;;-1.20;99.90;;;;;;5115409;27;19960;-78
2024/01/14 01:31:18;;;;;;;;;;;-1.10;99.90;;;;;;5114142;27;19924;-78
2024/01/14 01:33:45;;;;;;;;;;;-1.20;99.90;;;;;;5114747;28;19938;-77
2024/01/14 01:36:13;;;;;;;;;;;-1.20;99.90;;;;;;5101129;28;19975;-77
2024/01/14 01:38:40;;;;;;;;;;;-1.20;99.90;;;;;;5116395;28;19931;-77
2024/01/14 01:41:06;;;;;;;;;;;-1.20;99.90;;;;;;5115595;27;19932;-77
2024/01/14 01:43:33;;;;;;;;;;;-1.20;99.90;;;;;;5116254;27;19939;-77
2024/01/14 01:45:59;;;;;;;;;;;-1.20;99.90;;;;;;5118608;27;19935;-78
2024/01/14 01:48:26;;;;;;;;;;;-1.20;99.90;;;;;;5121040;27;19932;-78
2024/01/14 01:50:54;;;;;;;;;;;-1.20;99.90;;;;;;5102957;28;19931;-77
2024/01/14 01:53:22;;;;;;;;;;;-1.20;99.90;;;;;;5120843;27;19942;-78
2024/01/14 01:55:49;;;;;;;;;;;-1.20;99.90;;;;;;5123152;27;19932;-78
2024/01/14 01:58:16;;;;;;;;;;;-1.20;99.90;;;;;;5116898;27;19928;-78
2024/01/14 02:00:42;;;;;;;;;;;-1.20;99.90;;;;;;5115830;27;19931;-78
2024/01/14 02:03:09;;;;;;;;;;;-1.20;99.90;;;;;;5120409;27;19935;-78
2024/01/14 02:05:40;;;;;;;;;;;-1.20;99.90;;;;;;5116032;27;19938;-78
2024/01/14 02:08:07;;;;;;;;;;;-1.20;99.90;;;;;;5120560;27;19974;-78
2024/01/14 02:10:36;;;;;;;;;;;-1.20;99.90;;;;;;5113468;28;19927;-77
2024/01/14 02:13:04;;;;;;;;;;;-1.20;99.90;;;;;;5115001;27;19936;-78
2024/01/14 02:15:31;;;;;;;;;;;-1.20;99.90;;;;;;5117469;28;19927;-78
2024/01/14 02:17:57;;;;;;;;;;;-1.20;99.90;;;;;;5117189;27;19950;-78
2024/01/14 02:20:24;;;;;;;;;;;-1.20;99.90;;;;;;5114926;27;19928;-78
2024/01/14 02:22:52;;;;;;;;;;;-1.20;99.90;;;;;;5114517;27;19939;-78
2024/01/14 02:25:20;;;;;;;;;;;-1.20;99.90;;;;;;5117422;27;19924;-77
2024/01/14 02:27:47;;;;;;;;;;;-1.20;99.90;;;;;;5101789;28;19927;-78
2024/01/14 02:30:15;;;;;;;;;;;-1.20;99.90;;;;;;5098197;28;20015;-78
2024/01/14 02:32:41;;;;;;;;;;;-1.30;99.90;;;;;;5109140;28;19924;-78
2024/01/14 02:35:08;;;;;;;;;;;-1.20;99.90;;;;;;5115232;27;19932;-78
2024/01/14 02:37:37;;;;;;;;;;;-1.30;99.90;;;;;;5113802;27;19927;-78
2024/01/14 02:40:04;;;;;;;;;;;-1.20;99.90;;;;;;5113708;27;19934;-78
2024/01/14 02:42:32;;;;;;;;;;;-1.20;99.90;;;;;;5113052;27;19934;-77
2024/01/14 02:44:59;;;;;;;;;;;-1.30;99.90;;;;;;5097730;28;19935;-78
2024/01/14 02:47:26;;;;;;;;;;;-1.30;99.90;;;;;;5113972;27;19932;-77
2024/01/14 02:49:52;;;;;;;;;;;-1.30;99.90;;;;;;5116316;28;19928;-77
2024/01/14 02:52:19;;;;;;;;;;;-1.30;99.90;;;;;;5114378;27;19924;-78
2024/01/14 02:54:45;;;;;;;;;;;-1.30;99.90;;;;;;5111514;27;19932;-78
2024/01/14 02:57:12;;;;;;;;;;;-1.30;99.90;;;;;;5112253;27;20497;-77
2024/01/14 02:59:40;;;;;;;;;;;-1.30;99.90;;;;;;5114219;27;19961;-78
2024/01/14 03:02:07;;;;;;;;;;;-1.30;99.90;;;;;;5113504;27;19927;-77
2024/01/14 03:04:33;;;;;;;;;;;-1.30;99.90;;;;;;5109760;28;19927;-78
2024/01/14 03:07:00;;;;;;;;;;;-1.30;99.90;;;;;;5092542;28;19931;-78
2024/01/14 03:09:27;;;;;;;;;;;-1.30;99.90;;;;;;5115024;28;19924;-78
2024/01/14 03:11:55;;;;;;;;;;;-1.30;99.90;;;;;;5112726;27;19927;-77
2024/01/14 03:14:23;;;;;;;;;;;-1.30;99.90;;;;;;5110435;27;20122;-76
2024/01/14 03:16:51;;;;;;;;;;;-1.30;99.90;;;;;;5113438;28;19928;-79
2024/01/14 03:19:17;;;;;;;;;;;-1.30;99.90;;;;;;5113814;28;19939;-77
2024/01/14 03:21:44;;;;;;;;;;;-1.30;99.90;;;;;;5111403;28;19973;-77
2024/01/14 03:24:11;;;;;;;;;;;-1.30;99.90;;;;;;5112274;28;19928;-78
2024/01/14 03:26:37;;;;;;;;;;;-1.30;99.90;;;;;;5115923;27;19931;-77
2024/01/14 03:29:04;;;;;;;;;;;-1.30;99.90;;;;;;5113221;28;19923;-77
2024/01/14 03:31:34;;;;;;;;;;;-1.30;99.90;;;;;;5116483;27;19943;-78
2024/01/14 03:34:02;;;;;;;;;;;-1.30;99.90;;;;;;5115139;28;19931;-78
2024/01/14 03:36:29;;;;;;;;;;;-1.30;99.90;;;;;;5109896;27;19939;-78
2024/01/14 03:38:56;;;;;;;;;;;-1.30;99.90;;;;;;5114682;27;19928;-78
2024/01/14 03:41:22;;;;;;;;;;;-1.30;99.90;;;;;;5112585;28;19935;-77
2024/01/14 03:43:49;;;;;;;;;;;-1.30;99.90;;;;;;5115033;28;20679;-78
2024/01/14 03:46:15;;;;;;;;;;;-1.30;99.90;;;;;;5115893;27;19935;-78
2024/01/14 03:48:42;;;;;;;;;;;-1.30;99.90;;;;;;5116367;27;19931;-78
2024/01/14 03:51:10;;;;;;;;;;;-1.40;99.90;;;;;;5114369;27;19931;-78
2024/01/14 03:53:37;;;;;;;;;;;-1.30;99.90;;;;;;5110711;27;19927;-78
2024/01/14 03:56:05;;;;;;;;;;;-1.30;99.90;;;;;;5114452;27;19928;-77
2024/01/14 03:58:31;;;;;;;;;;;-1.30;99.90;;;;;;5094669;27;19970;-78
2024/01/14 04:00:58;;;;;;;;;;;-1.40;99.90;;;;;;5107134;27;19928;-78
2024/01/14 04:03:25;;;;;;;;;;;-1.40;99.90;;;;;;5111492;28;19931;-77
2024/01/14 04:05:51;;;;;;;;;;;-1.30;99.90;;;;;;5114468;27;19932;-78
2024/01/14 04:08:20;;;;;;;;;;;-1.30;99.90;;;;;;5113545;28;19928;-78
2024/01/14 04:10:49;;;;;;;;;;;-1.30;99.90;;;;;;5093642;27;19979;-78
2024/01/14 04:13:15;;;;;;;;;;;-1.40;99.90;;;;;;5111883;28;20005;-78
2024/01/14 04:15:42;;;;;;;;;;;-1.40;99.90;;;;;;5096696;27;19928;-77
2024/01/14 04:18:08;;;;;;;;;;;-1.30;99.90;;;;;;5112354;28;19928;-78
2024/01/14 04:20:35;;;;;;;;;;;-1.40;99.90;;;;;;5108736;27;19932;-78
2024/01/14 04:23:02;;;;;;;;;;;-1.40;99.90;;;;;;5111258;27;19959;-78
2024/01/14 04:25:30;;;;;;;;;;;-1.40;99.90;;;;;;5113260;28;19932;-77
2024/01/14 04:27:57;;;;;;;;;;;-1.40;99.90;;;;;;5115824;28;19924;-77
2024/01/14 04:30:24;;;;;;;;;;;-1.40;99.90;;;;;;5110992;27;19955;-77
2024/01/14 04:32:50;;;;;;;;;;;-1.40;99.90;;;;;;5110297;27;19932;-78
2024/01/14 04:35:17;;;;;;;;;;;-1.40;99.90;;;;;;5113647;28;19927;-78
2024/01/14 04:37:44;;;;;;;;;;;-1.40;99.90;;;;;;5113334;27;19930;-78
2024/01/14 04:40:11;;;;;;;;;;;-1.40;99.90;;;;;;5110317;28;20125;-78
2024/01/14 04:42:39;;;;;;;;;;;-1.40;99.90;;;;;;5113837;28;19934;-78
2024/01/14 04:45:06;;;;;;;;;;;-1.40;99.90;;;;;;5111149;28;20205;-78
2024/01/14 04:47:33;;;;;;;;;;;-1.40;99.90;;;;;;5111752;28;19940;-78
2024/01/14 04:49:59;;;;;;;;;;;-1.40;99.90;;;;;;5077543;28;19971;-78
2024/01/14 04:52:26;;;;;;;;;;;-1.40;99.90;;;;;;5106331;27;19932;-77
2024/01/14 04:54:53;;;;;;;;;;;-1.40;99.90;;;;;;5112413;28;19938;-77
2024/01/14 04:57:19;;;;;;;;;;;-1.40;99.90;;;;;;5111195;28;20032;-78
2024/01/14 04:59:48;;;;;;;;;;;-1.40;99.90;;;;;;5109775;28;19932;-77
2024/01/14 05:02:14;;;;;;;;;;;-1.40;99.90;;;;;;5108997;28;19927;-78
2024/01/14 05:04:41;;;;;;;;;;;-1.40;99.90;;;;;;5109120;28;19927;-78
2024/01/14 05:07:08;;;;;;;;;;;-1.40;99.90;;;;;;5093078;28;19956;-78
2024/01/14 05:09:34;;;;;;;;;;;-1.40;99.90;;;;;;5109307;28;19939;-78
2024/01/14 05:12:01;;;;;;;;;;;-1.40;99.90;;;;;;5111600;28;19927;-78
2024/01/14 05:14:27;;;;;;;;;;;-1.40;99.90;;;;;;5095231;28;19935;-78
2024/01/14 05:16:55;;;;;;;;;;;-1.40;99.90;;;;;;5109857;28;20009;-77
2024/01/14 05:19:22;;;;;;;;;;;-1.40;99.90;;;;;;5111038;28;19935;-78
2024/01/14 05:21:49;;;;;;;;;;;-1.40;99.90;;;;;;5101788;28;19928;-78
2024/01/14 05:24:15;;;;;;;;;;;-1.40;99.90;;;;;;5112497;28;19977;-78
2024/01/14 05:26:42;;;;;;;;;;;-1.40;99.90;;;;;;5111006;28;19970;-78
2024/01/14 05:29:08;;;;;;;;;;;-1.40;99.90;;;;;;5110445;28;19958;-78
2024/01/14 05:31:37;;;;;;;;;;;-1.40;99.90;;;;;;5111656;28;19978;-76
2024/01/14 05:34:05;;;;;;;;;;;-1.40;99.90;;;;;;5110478;28;19928;-78
2024/01/14 05:36:32;;;;;;;;;;;-1.40;99.90;;;;;;5109015;28;19935;-78
2024/01/14 05:38:58;;;;;;;;;;;-1.40;99.90;;;;;;5108718;28;19936;-78
2024/01/14 05:41:26;;;;;;;;;;;-1.40;99.90;;;;;;5108330;28;19932;-78
2024/01/14 05:43:52;;;;;;;;;;;-1.40;99.90;;;;;;5114569;28;19935;-78
2024/01/14 05:46:19;;;;;;;;;;;-1.40;99.90;;;;;;5107576;28;19927;-78
2024/01/14 05:48:45;;;;;;;;;;;-1.40;99.90;;;;;;5107524;28;19928;-78
2024/01/14 05:51:14;;;;;;;;;;;-1.40;99.90;;;;;;5109447;28;19939;-78
2024/01/14 05:53:40;;;;;;;;;;;-1.40;99.90;;;;;;5114753;28;19935;-78
2024/01/14 05:56:07;;;;;;;;;;;-1.40;99.90;;;;;;5109403;28;19932;-78
2024/01/14 05:58:34;;;;;;;;;;;-1.50;99.90;;;;;;5110090;28;19935;-78
2024/01/14 06:01:00;;;;;;;;;;;-1.50;99.90;;;;;;5105561;28;19928;-77
2024/01/14 06:03:27;;;;;;;;;;;-1.40;99.90;;;;;;5108506;28;19927;-77
2024/01/14 06:05:54;;;;;;;;;;;-1.40;99.90;;;;;;5095900;27;19941;-78
2024/01/14 06:08:22;;;;;;;;;;;-1.50;99.90;;;;;;5116376;28;19928;-78
2024/01/14 06:10:49;;;;;;;;;;;-1.50;99.90;;;;;;5111348;28;19935;-78
2024/01/14 06:13:15;;;;;;;;;;;-1.50;99.90;;;;;;5113441;27;20722;-77
2024/01/14 06:15:42;;;;;;;;;;;-1.50;99.90;;;;;;5113484;27;20438;-78
2024/01/14 06:18:09;;;;;;;;;;;-1.40;99.90;;;;;;5115652;27;19927;-77
2024/01/14 06:20:35;;;;;;;;;;;-1.50;99.90;;;;;;5110997;27;20508;-77
2024/01/14 06:23:04;;;;;;;;;;;-1.50;99.90;;;;;;5112705;27;19927;-78
2024/01/14 06:25:32;;;;;;;;;;;-1.50;99.90;;;;;;5112287;28;19928;-77
2024/01/14 06:27:59;;;;;;;;;;;-1.50;99.90;;;;;;5115579;27;19932;-78
2024/01/14 06:30:26;;;;;;;;;;;-1.50;99.90;;;;;;5111164;27;19932;-78
2024/01/14 06:32:55;;;;;;;;;;;-1.50;99.90;;;;;;5117285;27;19928;-78
2024/01/14 06:35:23;;;;;;;;;;;-1.50;99.90;;;;;;5109027;27;21272;-78
2024/01/14 06:37:50;;;;;;;;;;;-1.50;99.90;;;;;;5117916;27;19955;-77
2024/01/14 06:40:17;;;;;;;;;;;-1.50;99.90;;;;;;5115153;27;19942;-78
2024/01/14 06:42:45;;;;;;;;;;;-1.50;99.90;;;;;;5115762;28;19935;-77
2024/01/14 06:45:13;;;;;;;;;;;-1.50;99.90;;;;;;5115032;28;19928;-77
2024/01/14 06:47:39;;;;;;;;;;;-1.50;99.90;;;;;;5112927;27;19935;-78
2024/01/14 06:50:07;;;;;;;;;;;-1.50;99.90;;;;;;5111269;27;19932;-77
2024/01/14 06:52:33;;;;;;;;;;;-1.50;99.90;;;;;;5113586;28;19928;-78
2024/01/14 06:55:00;;;;;;;;;;;-1.50;99.90;;;;;;5115308;27;19969;-77
2024/01/14 06:57:27;;;;;;;;;;;-1.50;99.90;;;;;;5095879;28;20427;-77
2024/01/14 06:59:57;;;;;;;;;;;-1.50;99.90;;;;;;5113451;27;19928;-78
2024/01/14 07:02:23;;;;;;;;;;;-1.50;99.90;;;;;;5114893;27;20608;-77
2024/01/14 07:04:50;;;;;;;;;;;-1.50;99.90;;;;;;5114150;28;20763;-78
2024/01/14 07:07:17;;;;;;;;;;;-1.50;99.90;;;;;;5101522;27;20414;-78
2024/01/14 07:09:43;;;;;;;;;;;-1.50;99.90;;;;;;5100590;28;19932;-77
2024/01/14 07:12:10;;;;;;;;;;;-1.50;99.90;;;;;;5102027;28;19938;-78
2024/01/14 07:14:37;;;;;;;;;;;-1.50;99.90;;;;;;5101115;27;20316;-79
2024/01/14 07:17:06;;;;;;;;;;;-1.50;99.90;;;;;;5101860;27;19989;-78
2024/01/14 07:19:32;;;;;;;;;;;-1.50;99.90;;;;;;5103138;27;19928;-77
2024/01/14 07:21:59;;;;;;;;;;;-1.50;99.90;;;;;;5086251;27;19927;-79
2024/01/14 07:24:25;;;;;;;;;;;-1.50;99.90;;;;;;5104458;27;19947;-78
2024/01/14 07:26:52;;;;;;;;;;;-1.50;99.90;;;;;;5103856;27;20695;-78
2024/01/14 07:29:18;;;;;;;;;;;-1.60;99.90;;;;;;5085328;28;20444;-79
2024/01/14 07:31:45;;;;;;;;;;;-1.50;99.90;;;;;;5099418;28;19935;-79
2024/01/14 07:34:13;;;;;;;;;;;-1.60;99.90;;;;;;5102694;27;19935;-78
2024/01/14 07:36:40;;;;;;;;;;;-1.60;99.90;;;;;;5102775;27;19938;-78
2024/01/14 07:39:07;;;;;;;;;;;-1.50;99.90;;;;;;5097877;27;20894;-79
2024/01/14 07:41:33;;;;;;;;;;;-1.60;99.90;;;;;;5102731;27;19928;-78
2024/01/14 07:44:00;;;;;;;;;;;-1.50;99.90;;;;;;5100746;27;19927;-78
2024/01/14 07:46:27;;;;;;;;;;;-1.60;99.90;;;;;;5099965;27;19931;-78
2024/01/14 07:48:53;;;;;;;;;;;-1.60;99.90;;;;;;5101734;27;19934;-78
2024/01/14 07:51:21;;;;;;;;;;;-1.60;99.90;;;;;;5100963;27;19932;-78
2024/01/14 07:53:48;;;;;;;;;;;-1.60;99.90;;;;;;5101741;28;19927;-78
2024/01/14 07:56:14;;;;;;;;;;;-1.60;99.90;;;;;;5083070;28;19928;-78
2024/01/14 07:58:41;;;;;;;;;;;-1.60;99.90;;;;;;5103473;28;20350;-78
2024/01/14 08:01:08;;;;;;;;;;;-1.60;99.90;;;;;;5101733;28;19935;-77
2024/01/14 08:03:35;;;;;;;;;;;-1.50;99.90;;;;;;5092827;28;20384;-78
2024/01/14 08:06:02;;;;;;;;;;;-1.60;99.90;;;;;;5098789;28;20484;-78
2024/01/14 08:08:30;;;;;;;;;;;-1.60;99.90;;;;;;5095046;28;19928;-79
2024/01/14 08:10:57;;;;;;;;;;;-1.60;99.90;;;;;;5080235;28;19975;-78
2024/01/14 08:13:23;;;;;;;;;;;-1.60;99.90;;;;;;5101752;28;20046;-77
2024/01/14 08:15:50;;;;;;;;;;;-1.60;99.90;;;;;;5101623;28;19932;-78
2024/01/14 08:18:16;;;;;;;;;;;-1.60;99.90;;;;;;5102854;28;19952;-78
2024/01/14 08:20:43;;;;;;;;;;;-1.60;99.90;;;;;;5097296;28;20727;-77
2024/01/14 08:23:10;;;;;;;;;;;-1.60;99.90;;;;;;5101471;27;19932;-78
2024/01/14 08:25:38;;;;;;;;;;;-1.60;99.90;;;;;;5084327;28;19928;-78
2024/01/14 08:28:05;;;;;;;;;;;-1.60;99.90;;;;;;5098510;28;19927;-78
2024/01/14 08:30:31;;;;;;;;;;;-1.60;99.90;;;;;;5099973;27;19934;-79
2024/01/14 08:32:58;;;;;;;;;;;-1.60;99.90;;;;;;5104664;27;19931;-77
2024/01/14 08:35:25;;;;;;;;;;;-1.60;99.90;;;;;;5084770;28;19981;-78
2024/01/14 08:37:51;;;;;;;;;;;-1.60;99.90;;;;;;5103457;28;19935;-78
2024/01/14 08:40:18;;;;;;;;;;;-1.60;99.90;;;;;;5104315;27;19973;-78
2024/01/14 08:42:48;;;;;;;;;;;-1.60;99.90;;;;;;5099584;28;19928;-80
2024/01/14 08:45:14;;;;;;;;;;;-1.60;99.90;;;;;;5082978;28;19932;-78
2024/01/14 08:47:41;;;;;;;;;;;-1.60;99.90;;;;;;5102275;27;19939;-79
2024/01/14 08:50:09;;;;;;;;;;;-1.60;99.90;;;;;;5085761;27;19932;-78
2024/01/14 08:52:36;;;;;;;;;;;-1.60;99.90;;;;;;5101209;28;19935;-77
2024/01/14 08:55:02;;;;;;;;;;;-1.60;99.90;;;;;;5102246;27;19927;-78
2024/01/14 08:57:29;;;;;;;;;;;-1.60;99.90;;;;;;5100367;27;20267;-78
2024/01/14 08:59:57;;;;;;;;;;;-1.60;99.90;;;;;;5100067;28;19932;-78
2024/01/14 09:02:24;;;;;;;;;;;-1.50;99.90;;;;;;5105183;27;19928;-78
2024/01/14 09:04:51;;;;;;;;;;;-1.50;99.90;;;;;;5098408;27;19928;-79
2024/01/14 09:07:17;;;;;;;;;;;-1.50;99.90;;;;;;5083092;28;19931;-77
2024/01/14 09:09:44;;;;;;;;;;;-1.50;99.90;;;;;;5103206;27;20381;-78
2024/01/14 09:12:11;;;;;;;;;;;-1.60;99.90;;;;;;5105308;28;19938;-78
2024/01/14 09:14:39;;;;;;;;;;;-1.50;99.90;;;;;;5097822;28;20008;-78
2024/01/14 09:17:07;;;;;;;;;;;-1.50;99.90;;;;;;5106311;27;19928;-78
2024/01/14 09:19:33;;;;;;;;;;;-1.50;99.90;;;;;;5101004;28;19928;-79
2024/01/14 09:22:00;;;;;;;;;;;-1.60;99.90;;;;;;5103051;28;19939;-78
2024/01/14 09:24:27;;;;;;;;;;;-1.60;99.90;;;;;;5082251;28;20632;-79
2024/01/14 09:26:53;;;;;;;;;;;-1.50;99.90;;;;;;5103166;28;19927;-77
2024/01/14 09:29:20;;;;;;;;;;;-1.50;99.90;;;;;;5102087;28;19928;-77
2024/01/14 09:31:47;;;;;;;;;;;-1.50;99.90;;;;;;5100968;28;19935;-78
2024/01/14 09:34:15;;;;;;;;;;;-1.50;99.90;;;;;;5106878;28;19933;-79
2024/01/14 09:36:41;;;;;;;;;;;-1.50;99.90;;;;;;5100641;28;19932;-78
2024/01/14 09:39:10;;;;;;;;;;;-1.50;99.90;;;;;;5097667;28;19924;-79
2024/01/14 09:41:40;;;;;;;;;;;-1.50;99.90;;;;;;5085686;28;20772;-78
2024/01/14 09:44:09;;;;;;;;;;;-1.50;99.90;;;;;;5105610;28;20488;-79
2024/01/14 09:46:36;;;;;;;;;;;-1.50;99.90;;;;;;5107081;27;19935;-77
2024/01/14 09:49:03;;;;;;;;;;;-1.50;99.90;;;;;;5076403;28;20039;-81
2024/01/14 09:51:32;;;;;;;;;;;-1.40;99.90;;;;;;5085218;28;19980;-79
2024/01/14 09:54:01;;;;;;;;;;;-1.40;99.90;;;;;;5107704;27;20048;-79
2024/01/14 09:56:30;;;;;;;;;;;-1.50;99.90;;;;;;5106388;27;19980;-77
2024/01/14 09:58:58;;;;;;;;;;;-1.50;99.90;;;;;;5105503;27;20312;-77
2024/01/14 10:01:30;;;;;;;;;;;-1.40;99.90;;;;;;5106269;28;19935;-79
2024/01/14 10:03:58;;;;;;;;;;;-1.40;99.90;;;;;;5106924;27;19928;-78
2024/01/14 10:06:25;;;;;;;;;;;-1.40;99.90;;;;;;5102815;27;19964;-79
2024/01/14 10:08:53;;;;;;;;;;;-1.40;99.90;;;;;;5107312;28;19927;-79
2024/01/14 10:11:19;;;;;;;;;;;-1.40;99.90;;;;;;5106771;27;19927;-78
2024/01/14 10:13:46;;;;;;;;;;;-1.40;99.90;;;;;;5101578;27;19931;-79
2024/01/14 10:16:13;;;;;;;;;;;-1.40;99.90;;;;;;5099469;28;20031;-78
2024/01/14 10:18:40;;;;;;;;;;;-1.40;99.90;;;;;;5104007;28;19963;-78
2024/01/14 10:21:05;;;;;;;;;;;-1.40;99.90;;;;;;5102037;28;19967;-78
2024/01/14 10:23:32;;;;;;;;;;;-1.30;99.90;;;;;;5084790;28;20061;-78
2024/01/14 10:26:01;;;;;;;;;;;-1.40;99.90;;;;;;5105557;28;19931;-78
2024/01/14 10:28:31;;;;;;;;;;;-1.40;99.90;;;;;;5105386;28;19939;-79
2024/01/14 10:30:57;;;;;;;;;;;-1.30;99.90;;;;;;5100961;27;20332;-78
2024/01/14 10:33:25;;;;;;;;;;;-1.40;99.90;;;;;;5103941;27;20307;-79
2024/01/14 10:35:52;;;;;;;;;;;-1.30;99.90;;;;;;5104007;27;20034;-79
2024/01/14 10:38:21;;;;;;;;;;;-1.30;99.90;;;;;;5085397;28;20011;-79
2024/01/14 10:40:48;;;;;;;;;;;-1.30;99.90;;;;;;5104723;27;20023;-78
2024/01/14 10:43:16;;;;;;;;;;;-1.30;99.90;;;;;;5102111;28;19927;-79
2024/01/14 10:45:43;;;;;;;;;;;-1.30;99.90;;;;;;5106655;27;20705;-77
2024/01/14 10:48:11;;;;;;;;;;;-1.30;99.90;;;;;;5104707;27;19961;-76
2024/01/14 10:50:39;;;;;;;;;;;-1.20;99.90;;;;;;5103130;27;19954;-79
2024/01/14 10:53:08;;;;;;;;;;;-1.20;99.90;;;;;;5099941;28;19967;-77
2024/01/14 10:55:40;;;;;;;;;;;-1.20;99.90;;;;;;5105231;27;20617;-78
2024/01/14 10:58:07;;;;;;;;;;;-1.20;99.90;;;;;;5101629;28;19928;-77
2024/01/14 11:00:36;;;;;;;;;;;-1.20;99.90;;;;;;5104841;28;20665;-79
2024/01/14 11:03:04;;;;;;;;;;;-1.10;99.90;;;;;;5098663;28;19931;-79
2024/01/14 11:05:33;;;;;;;;;;;-1.10;99.90;;;;;;5099087;28;19935;-79
2024/01/14 11:08:00;;;;;;;;;;;-1.10;99.90;;;;;;5103579;28;19967;-79
2024/01/14 11:10:26;;;;;;;;;;;-1.10;99.90;;;;;;5104798;27;19927;-78
2024/01/14 11:12:56;;;;;;;;;;;-1.10;99.90;;;;;;5086059;28;19928;-77
2024/01/14 11:15:27;;;;;;;;;;;-1.10;99.90;;;;;;5107316;27;19935;-78
2024/01/14 11:17:58;;;;;;;;;;;-1.00;99.90;;;;;;5112244;28;19935;-77
2024/01/14 11:20:29;;;;;;;;;;;-1.10;99.90;;;;;;5112061;27;19931;-78
2024/01/14 11:22:56;;;;;;;;;;;-1.10;99.90;;;;;;5093631;28;19991;-78
2024/01/14 11:25:23;;;;;;;;;;;-1.10;99.90;;;;;;5112447;27;19939;-77
2024/01/14 11:27:51;;;;;;;;;;;-1.10;99.90;;;;;;5093401;28;20034;-77
2024/01/14 11:30:19;;;;;;;;;;;-1.10;99.90;;;;;;5109321;27;20304;-77
2024/01/14 11:32:46;;;;;;;;;;;-1.00;99.90;;;;;;5096058;28;19986;-78
2024/01/14 11:35:28;;;;;;;;;;;-1.00;99.90;;;;;;5115016;27;19928;-78
2024/01/14 11:37:56;;;;;;;;;;;-1.10;99.90;;;;;;5112943;28;20004;-78
2024/01/14 11:40:26;;;;;;;;;;;-1.10;99.90;;;;;;5110517;27;20010;-78
2024/01/14 11:42:57;;;;;;;;;;;-1.10;99.90;;;;;;5110480;27;19959;-77
2024/01/14 11:45:34;;;;;;;;;;;-1.00;99.90;;;;;;5114363;28;19938;-78
2024/01/14 11:48:02;;;;;;;;;;;-1.00;99.90;;;;;;5113432;27;19950;-78
2024/01/14 11:50:30;;;;;;;;;;;-1.00;99.90;;;;;;5108512;27;19935;-77
2024/01/14 11:52:59;;;;;;;;;;;-1.00;99.90;;;;;;5095534;28;19935;-77
2024/01/14 11:55:26;;;;;;;;;;;-1.00;99.90;;;;;;5111910;27;19981;-78
2024/01/14 11:57:53;;;;;;;;;;;-1.00;99.90;;;;;;5112356;27;19931;-77
2024/01/14 12:00:23;;;;;;;;;;;-1.00;99.90;;;;;;5106935;27;19955;-78
2024/01/14 12:03:02;;;;;;;;;;;-1.00;99.90;;;;;;5107235;27;20448;-79
2024/01/14 12:05:29;;;;;;;;;;;-1.00;99.90;;;;;;5108058;27;19928;-78
2024/01/14 12:07:55;;;;;;;;;;;-1.00;99.90;;;;;;5107982;27;20288;-78
2024/01/14 12:10:24;;;;;;;;;;;-1.00;99.90;;;;;;5113154;27;19973;-77
2024/01/14 12:12:51;;;;;;;;;;;-0.90;99.90;;;;;;5104571;28;20669;-78
2024/01/14 12:15:17;;;;;;;;;;;-1.00;99.90;;;;;;5112724;28;19928;-78
2024/01/14 12:17:53;;;;;;;;;;;-1.00;99.90;;;;;;5112223;28;19928;-79
2024/01/14 12:20:21;;;;;;;;;;;-0.90;99.90;;;;;;5107383;27;19928;-78
2024/01/14 12:22:48;;;;;;;;;;;-0.90;99.90;;;;;;5111758;27;19931;-78
2024/01/14 12:25:15;;;;;;;;;;;-0.90;99.90;;;;;;5110898;28;19927;-78
2024/01/14 12:27:43;;;;;;;;;;;-0.90;99.90;;;;;;5106211;28;19928;-77
2024/01/14 12:30:10;;;;;;;;;;;-0.90;99.90;;;;;;5091762;28;19928;-78
2024/01/14 12:32:37;;;;;;;;;;;-0.90;99.90;;;;;;5108154;27;19935;-77
2024/01/14 12:35:03;;;;;;;;;;;-0.90;99.90;;;;;;5108326;28;19935;-78
2024/01/14 12:37:30;;;;;;;;;;;-0.90;99.90;;;;;;5091369;28;19935;-77
2024/01/14 12:39:57;;;;;;;;;;;-0.90;99.90;;;;;;5107543;28;19989;-78
2024/01/14 12:42:24;;;;;;;;;;;-0.90;99.90;;;;;;5108428;27;19927;-77
2024/01/14 12:44:52;;;;;;;;;;;-0.90;99.90;;;;;;5107343;28;19932;-77
2024/01/14 12:47:19;;;;;;;;;;;-0.90;99.90;;;;;;5109731;28;19932;-77
2024/01/14 12:49:45;;;;;;;;;;;-0.90;99.90;;;;;;5107545;27;19956;-78
2024/01/14 12:52:12;;;;;;;;;;;-0.90;99.90;;;;;;5095004;28;19958;-76
2024/01/14 12:54:39;;;;;;;;;;;-0.90;99.90;;;;;;5108303;28;19932;-78
2024/01/14 12:57:06;;;;;;;;;;;-0.90;99.90;;;;;;5110375;28;19934;-77
2024/01/14 12:59:33;;;;;;;;;;;-0.80;99.90;;;;;;5107548;28;19928;-78
2024/01/14 13:02:02;;;;;;;;;;;-0.80;99.90;;;;;;5107978;28;19973;-78
2024/01/14 13:04:29;;;;;;;;;;;-0.80;99.90;;;;;;5108865;28;19934;-78
2024/01/14 13:06:56;;;;;;;;;;;-0.90;99.90;;;;;;5075245;28;19927;-79
2024/01/14 13:09:23;;;;;;;;;;;-0.80;99.90;;;;;;5108504;27;20197;-77
2024/01/14 13:11:50;;;;;;;;;;;-0.80;99.90;;;;;;5106205;28;19931;-78
2024/01/14 13:14:16;;;;;;;;;;;-0.80;99.90;;;;;;5106683;28;19932;-79
2024/01/14 13:16:45;;;;;;;;;;;-0.80;99.90;;;;;;5111089;28;20392;-78
2024/01/14 13:19:13;;;;;;;;;;;-0.80;99.90;;;;;;5093279;28;19939;-77
2024/01/14 13:21:40;;;;;;;;;;;-0.80;99.90;;;;;;5109092;28;19935;-78
2024/01/14 13:24:08;;;;;;;;;;;-0.80;99.90;;;;;;5109457;28;19928;-78
2024/01/14 13:26:36;;;;;;;;;;;-0.80;99.90;;;;;;5110053;28;19932;-78
2024/01/14 13:29:03;;;;;;;;;;;-0.80;99.90;;;;;;5111286;28;19980;-79
2024/01/14 13:31:31;;;;;;;;;;;-0.80;99.90;;;;;;5110808;28;19977;-79
2024/01/14 13:33:57;;;;;;;;;;;-0.80;99.90;;;;;;5111346;28;19966;-79
2024/01/14 13:36:26;;;;;;;;;;;-0.80;99.90;;;;;;5108350;28;20047;-78
2024/01/14 13:38:52;;;;;;;;;;;-0.80;99.90;;;;;;5109730;28;19939;-78
2024/01/14 13:41:19;;;;;;;;;;;-0.80;99.90;;;;;;5113603;28;19931;-79
2024/01/14 13:43:47;;;;;;;;;;;-0.80;99.90;;;;;;5108434;28;19988;-79
2024/01/14 13:46:14;;;;;;;;;;;-0.80;99.90;;;;;;5090231;28;19932;-79
2024/01/14 13:48:42;;;;;;;;;;;-0.80;99.90;;;;;;5109314;28;20039;-78
2024/01/14 13:51:09;;;;;;;;;;;-0.80;99.90;;;;;;5109638;28;19928;-79
2024/01/14 13:53:37;;;;;;;;;;;-0.80;99.90;;;;;;5111475;28;19935;-78
2024/01/14 13:56:04;;;;;;;;;;;-0.80;99.90;;;;;;5110819;28;19928;-80
2024/01/14 13:58:30;;;;;;;;;;;-0.70;99.90;;;;;;5110564;28;19928;-77
2024/01/14 14:00:57;;;;;;;;;;;-0.70;99.90;;;;;;5111728;28;20678;-78
2024/01/14 14:03:24;;;;;;;;;;;-0.70;99.90;;;;;;5109811;28;19927;-78
2024/01/14 14:05:50;;;;;;;;;;;-0.70;99.90;;;;;;5111853;28;19932;-79
2024/01/14 14:08:17;;;;;;;;;;;-0.70;99.90;;;;;;5098859;28;19931;-78
2024/01/14 14:10:45;;;;;;;;;;;-0.70;99.90;;;;;;5106262;28;19929;-78
2024/01/14 14:13:12;;;;;;;;;;;-0.70;99.90;;;;;;5104587;28;20582;-78
2024/01/14 14:15:38;;;;;;;;;;;-0.70;99.90;;;;;;5106111;28;19928;-78